sensor_id;sensor_type;location;lat;lon;timestamp;pressure;altitude;pressure_sealevel;temperature;humidity
51986;BME280;38002;53.296;6.600;2023-07-20T00:01:29;101591.47;;;15.99;79.69
51986;BME280;38002;53.296;6.600;2023-07-20T00:06:29;101578.63;;;15.99;79.69
51986;BME280;38002;53.296;6.600;2023-07-20T00:11:30;101590.97;;;15.95;79.52
51986;BME280;38002;53.296;6.600;2023-07-20T00:16:30;101584.16;;;15.91;79.55
51986;BME280;38002;53.296;6.600;2023-07-20T00:21:32;101596.31;;;15.88;79.59
51986;BME280;38002;53.296;6.600;2023-07-20T00:26:33;101593.63;;;15.80;82.12
51986;BME280;38002;53.296;6.600;2023-07-20T00:31:33;101597.59;;;15.78;79.59
51986;BME280;38002;53.296;6.600;2023-07-20T00:36:35;101587.63;;;15.77;79.87
51986;BME280;38002;53.296;6.600;2023-07-20T00:41:35;101593.47;;;15.74;79.76
51986;BME280;38002;53.296;6.600;2023-07-20T00:46:36;101596.25;;;15.66;79.90
51986;BME280;38002;53.296;6.600;2023-07-20T00:51:36;101593.53;;;15.58;80.01
51986;BME280;38002;53.296;6.600;2023-07-20T00:56:43;101597.31;;;15.49;79.73
51986;BME280;38002;53.296;6.600;2023-07-20T01:01:44;101592.19;;;15.37;79.75
51986;BME280;38002;53.296;6.600;2023-07-20T01:07:10;101595.66;;;15.23;79.88
51986;BME280;38002;53.296;6.600;2023-07-20T01:12:23;101602.88;;;15.08;80.33
51986;BME280;38002;53.296;6.600;2023-07-20T01:17:25;101610.59;;;14.96;79.93
51986;BME280;38002;53.296;6.600;2023-07-20T01:28:35;101605.81;;;14.74;80.31
51986;BME280;38002;53.296;6.600;2023-07-20T01:33:14;101591.06;;;14.59;80.01
51986;BME280;38002;53.296;6.600;2023-07-20T01:38:17;101595.69;;;14.50;79.97
51986;BME280;38002;53.296;6.600;2023-07-20T01:43:19;101598.94;;;14.38;80.05
51986;BME280;38002;53.296;6.600;2023-07-20T01:48:19;101591.88;;;14.27;80.56
51986;BME280;38002;53.296;6.600;2023-07-20T01:53:20;101585.84;;;14.16;80.57
51986;BME280;38002;53.296;6.600;2023-07-20T01:58:21;101595.06;;;14.06;80.41
51986;BME280;38002;53.296;6.600;2023-07-20T02:03:21;101598.13;;;13.95;80.77
51986;BME280;38002;53.296;6.600;2023-07-20T02:08:24;101595.03;;;13.90;80.72
51986;BME280;38002;53.296;6.600;2023-07-20T02:13:24;101592.09;;;13.84;81.05
51986;BME280;38002;53.296;6.600;2023-07-20T02:18:25;101599.94;;;13.79;80.97
51986;BME280;38002;53.296;6.600;2023-07-20T02:23:26;101594.09;;;13.74;80.69
51986;BME280;38002;53.296;6.600;2023-07-20T02:28:29;101601.25;;;13.67;81.22
51986;BME280;38002;53.296;6.600;2023-07-20T02:33:30;101594.03;;;13.57;80.63
51986;BME280;38002;53.296;6.600;2023-07-20T02:38:30;101604.75;;;13.51;80.94
51986;BME280;38002;53.296;6.600;2023-07-20T02:43:30;101603.84;;;13.42;80.70
51986;BME280;38002;53.296;6.600;2023-07-20T02:48:31;101609.59;;;13.31;81.05
51986;BME280;38002;53.296;6.600;2023-07-20T02:53:31;101610.25;;;13.25;81.27
51986;BME280;38002;53.296;6.600;2023-07-20T02:58:33;101607.47;;;13.17;80.76
51986;BME280;38002;53.296;6.600;2023-07-20T03:03:37;101619.31;;;13.08;81.08
51986;BME280;38002;53.296;6.600;2023-07-20T03:08:39;101614.13;;;12.97;80.94
51986;BME280;38002;53.296;6.600;2023-07-20T03:13:42;101614.06;;;12.89;81.22
51986;BME280;38002;53.296;6.600;2023-07-20T03:18:43;101615.88;;;12.80;81.41
51986;BME280;38002;53.296;6.600;2023-07-20T03:23:44;101610.50;;;12.70;81.14
51986;BME280;38002;53.296;6.600;2023-07-20T03:28:44;101615.75;;;12.64;81.72
51986;BME280;38002;53.296;6.600;2023-07-20T03:33:45;101628.13;;;12.58;81.36
51986;BME280;38002;53.296;6.600;2023-07-20T03:38:46;101616.69;;;12.55;81.39
51986;BME280;38002;53.296;6.600;2023-07-20T03:43:46;101623.59;;;12.49;81.58
51986;BME280;38002;53.296;6.600;2023-07-20T03:48:47;101620.16;;;12.47;82.13
51986;BME280;38002;53.296;6.600;2023-07-20T03:53:47;101628.53;;;12.46;81.74
51986;BME280;38002;53.296;6.600;2023-07-20T03:58:47;101626.66;;;12.46;82.00
51986;BME280;38002;53.296;6.600;2023-07-20T04:03:48;101627.03;;;12.51;81.84
51986;BME280;38002;53.296;6.600;2023-07-20T04:08:48;101635.19;;;12.51;82.28
51986;BME280;38002;53.296;6.600;2023-07-20T04:13:49;101631.88;;;12.57;82.08
51986;BME280;38002;53.296;6.600;2023-07-20T04:18:49;101637.00;;;12.60;82.30
51986;BME280;38002;53.296;6.600;2023-07-20T04:23:50;101629.38;;;12.64;82.67
51986;BME280;38002;53.296;6.600;2023-07-20T04:28:50;101640.38;;;12.72;82.75
51986;BME280;38002;53.296;6.600;2023-07-20T04:33:53;101639.72;;;12.78;82.39
51986;BME280;38002;53.296;6.600;2023-07-20T04:38:53;101639.44;;;12.81;82.59
51986;BME280;38002;53.296;6.600;2023-07-20T04:43:54;101640.25;;;12.82;82.64
51986;BME280;38002;53.296;6.600;2023-07-20T04:48:54;101649.16;;;12.84;82.92
51986;BME280;38002;53.296;6.600;2023-07-20T04:53:54;101658.03;;;12.86;82.98
51986;BME280;38002;53.296;6.600;2023-07-20T04:58:55;101652.44;;;12.87;82.78
51986;BME280;38002;53.296;6.600;2023-07-20T05:03:55;101662.34;;;12.88;83.27
51986;BME280;38002;53.296;6.600;2023-07-20T05:08:56;101657.41;;;12.92;82.88
51986;BME280;38002;53.296;6.600;2023-07-20T05:13:56;101656.25;;;12.94;83.28
51986;BME280;38002;53.296;6.600;2023-07-20T05:18:57;101665.00;;;12.98;83.64
51986;BME280;38002;53.296;6.600;2023-07-20T05:23:58;101656.63;;;12.99;83.30
51986;BME280;38002;53.296;6.600;2023-07-20T05:28:58;101662.75;;;13.11;83.99
51986;BME280;38002;53.296;6.600;2023-07-20T05:33:58;101660.75;;;13.21;83.95
51986;BME280;38002;53.296;6.600;2023-07-20T05:38:59;101657.91;;;13.31;83.73
51986;BME280;38002;53.296;6.600;2023-07-20T05:43:59;101647.56;;;13.42;83.87
51986;BME280;38002;53.296;6.600;2023-07-20T05:49:00;101660.78;;;13.55;84.26
51986;BME280;38002;53.296;6.600;2023-07-20T05:54:01;101657.66;;;13.68;84.27
51986;BME280;38002;53.296;6.600;2023-07-20T05:59:02;101654.47;;;13.80;84.61
51986;BME280;38002;53.296;6.600;2023-07-20T06:04:02;101646.81;;;13.92;84.11
51986;BME280;38002;53.296;6.600;2023-07-20T06:09:03;101650.81;;;14.05;84.18
51986;BME280;38002;53.296;6.600;2023-07-20T06:14:04;101650.16;;;14.20;84.30
51986;BME280;38002;53.296;6.600;2023-07-20T06:19:05;101659.44;;;14.35;83.79
51986;BME280;38002;53.296;6.600;2023-07-20T06:24:05;101661.56;;;14.49;83.36
51986;BME280;38002;53.296;6.600;2023-07-20T06:29:06;101664.81;;;14.61;82.93
51986;BME280;38002;53.296;6.600;2023-07-20T06:34:06;101668.09;;;14.72;82.63
51986;BME280;38002;53.296;6.600;2023-07-20T06:39:07;101664.53;;;14.88;81.99
51986;BME280;38002;53.296;6.600;2023-07-20T06:44:07;101664.34;;;15.06;81.60
51986;BME280;38002;53.296;6.600;2023-07-20T06:49:08;101672.38;;;15.23;80.99
51986;BME280;38002;53.296;6.600;2023-07-20T06:54:08;101679.53;;;15.40;80.83
51986;BME280;38002;53.296;6.600;2023-07-20T06:59:09;101670.16;;;15.51;80.40
51986;BME280;38002;53.296;6.600;2023-07-20T07:04:09;101673.59;;;15.53;79.69
51986;BME280;38002;53.296;6.600;2023-07-20T07:09:10;101673.00;;;15.50;79.49
51986;BME280;38002;53.296;6.600;2023-07-20T07:14:12;101679.22;;;15.60;78.84
51986;BME280;38002;53.296;6.600;2023-07-20T07:19:12;101679.53;;;15.65;78.81
51986;BME280;38002;53.296;6.600;2023-07-20T07:24:13;101686.00;;;15.80;78.78
51986;BME280;38002;53.296;6.600;2023-07-20T07:29:13;101684.22;;;16.03;77.96
51986;BME280;38002;53.296;6.600;2023-07-20T07:34:14;101680.31;;;16.28;77.69
51986;BME280;38002;53.296;6.600;2023-07-20T07:39:14;101683.78;;;16.53;76.55
51986;BME280;38002;53.296;6.600;2023-07-20T07:44:15;101688.00;;;16.72;76.19
51986;BME280;38002;53.296;6.600;2023-07-20T07:49:16;101689.03;;;16.94;75.44
51986;BME280;38002;53.296;6.600;2023-07-20T07:54:18;101685.97;;;17.11;74.86
51986;BME280;38002;53.296;6.600;2023-07-20T07:59:19;101709.63;;;17.20;74.68
51986;BME280;38002;53.296;6.600;2023-07-20T08:04:20;101712.06;;;17.15;73.67
51986;BME280;38002;53.296;6.600;2023-07-20T08:09:20;101710.69;;;17.34;74.20
51986;BME280;38002;53.296;6.600;2023-07-20T08:14:21;101718.22;;;17.55;73.24
51986;BME280;38002;53.296;6.600;2023-07-20T08:19:22;101721.63;;;17.57;73.03
51986;BME280;38002;53.296;6.600;2023-07-20T08:24:23;101715.03;;;17.66;72.62
51986;BME280;38002;53.296;6.600;2023-07-20T08:29:24;101717.72;;;17.74;72.40
51986;BME280;38002;53.296;6.600;2023-07-20T08:34:24;101704.81;;;18.04;71.57
51986;BME280;38002;53.296;6.600;2023-07-20T08:39:25;101712.88;;;18.35;70.78
51986;BME280;38002;53.296;6.600;2023-07-20T08:44:26;101710.06;;;18.64;69.27
51986;BME280;38002;53.296;6.600;2023-07-20T08:49:28;101717.41;;;18.93;69.12
51986;BME280;38002;53.296;6.600;2023-07-20T08:54:33;101716.88;;;19.25;67.81
51986;BME280;38002;53.296;6.600;2023-07-20T08:59:36;101722.31;;;19.61;68.11
51986;BME280;38002;53.296;6.600;2023-07-20T09:04:38;101720.22;;;19.98;67.46
51986;BME280;38002;53.296;6.600;2023-07-20T09:09:41;101717.88;;;19.94;66.80
51986;BME280;38002;53.296;6.600;2023-07-20T09:14:45;101726.53;;;19.57;66.61
51986;BME280;38002;53.296;6.600;2023-07-20T09:19:46;101733.63;;;19.66;66.40
51986;BME280;38002;53.296;6.600;2023-07-20T09:24:47;101723.91;;;20.05;66.13
51986;BME280;38002;53.296;6.600;2023-07-20T09:29:49;101722.66;;;20.48;65.30
51986;BME280;38002;53.296;6.600;2023-07-20T09:34:50;101720.19;;;20.73;64.33
51986;BME280;38002;53.296;6.600;2023-07-20T09:39:52;101725.22;;;20.50;64.09
51986;BME280;38002;53.296;6.600;2023-07-20T09:44:56;101718.66;;;20.16;64.64
51986;BME280;38002;53.296;6.600;2023-07-20T09:50:05;101718.22;;;20.54;64.42
51986;BME280;38002;53.296;6.600;2023-07-20T09:55:12;101725.25;;;20.56;62.98
51986;BME280;38002;53.296;6.600;2023-07-20T10:00:18;101720.09;;;20.47;63.30
51986;BME280;38002;53.296;6.600;2023-07-20T10:05:20;101725.78;;;20.79;63.03
51986;BME280;38002;53.296;6.600;2023-07-20T10:10:21;101728.19;;;21.09;62.10
51986;BME280;38002;53.296;6.600;2023-07-20T10:15:35;101733.88;;;20.88;60.79
51986;BME280;38002;53.296;6.600;2023-07-20T10:20:39;101724.81;;;20.59;61.65
51986;BME280;38002;53.296;6.600;2023-07-20T10:25:41;101727.41;;;20.61;61.64
51986;BME280;38002;53.296;6.600;2023-07-20T10:30:44;101734.16;;;21.12;60.97
51986;BME280;38002;53.296;6.600;2023-07-20T10:35:57;101726.13;;;21.44;58.51
51986;BME280;38002;53.296;6.600;2023-07-20T10:40:57;101722.28;;;21.78;59.71
51986;BME280;38002;53.296;6.600;2023-07-20T10:45:58;101728.84;;;22.16;58.21
51986;BME280;38002;53.296;6.600;2023-07-20T10:51:11;101711.09;;;22.30;54.32
51986;BME280;38002;53.296;6.600;2023-07-20T10:56:20;101722.84;;;22.26;57.88
51986;BME280;38002;53.296;6.600;2023-07-20T11:01:21;101720.53;;;22.16;56.69
51986;BME280;38002;53.296;6.600;2023-07-20T11:11:27;101716.25;;;22.78;56.46
51986;BME280;38002;53.296;6.600;2023-07-20T11:16:48;101712.66;;;22.71;50.93
51986;BME280;38002;53.296;6.600;2023-07-20T11:21:56;101721.34;;;22.81;53.74
51986;BME280;38002;53.296;6.600;2023-07-20T11:26:57;101710.03;;;23.14;55.68
51986;BME280;38002;53.296;6.600;2023-07-20T11:31:57;101711.97;;;23.44;55.11
51986;BME280;38002;53.296;6.600;2023-07-20T11:37:01;101703.91;;;23.36;54.70
51986;BME280;38002;53.296;6.600;2023-07-20T11:42:03;101715.00;;;23.36;53.90
51986;BME280;38002;53.296;6.600;2023-07-20T11:47:05;101703.00;;;23.42;54.31
51986;BME280;38002;53.296;6.600;2023-07-20T11:52:09;101703.53;;;23.58;53.70
51986;BME280;38002;53.296;6.600;2023-07-20T11:57:17;101695.25;;;23.76;51.88
51986;BME280;38002;53.296;6.600;2023-07-20T12:02:18;101691.19;;;24.15;52.51
51986;BME280;38002;53.296;6.600;2023-07-20T12:07:19;101694.78;;;24.40;51.86
51986;BME280;38002;53.296;6.600;2023-07-20T12:12:19;101699.78;;;24.31;51.11
51986;BME280;38002;53.296;6.600;2023-07-20T12:17:20;101696.44;;;24.05;51.25
51986;BME280;38002;53.296;6.600;2023-07-20T12:22:20;101695.56;;;24.04;51.14
51986;BME280;38002;53.296;6.600;2023-07-20T12:27:21;101685.03;;;24.31;50.56
51986;BME280;38002;53.296;6.600;2023-07-20T12:32:21;101693.75;;;24.53;50.43
51986;BME280;38002;53.296;6.600;2023-07-20T12:37:22;101684.59;;;24.64;50.32
51986;BME280;38002;53.296;6.600;2023-07-20T12:42:23;101692.50;;;24.67;49.65
51986;BME280;38002;53.296;6.600;2023-07-20T12:47:23;101698.34;;;24.29;49.38
51986;BME280;38002;53.296;6.600;2023-07-20T12:52:23;101690.28;;;23.78;49.88
51986;BME280;38002;53.296;6.600;2023-07-20T12:57:24;101691.97;;;23.61;50.91
51986;BME280;38002;53.296;6.600;2023-07-20T13:02:24;101682.66;;;23.73;50.88
51986;BME280;38002;53.296;6.600;2023-07-20T13:07:36;101683.59;;;23.67;48.93
51986;BME280;38002;53.296;6.600;2023-07-20T13:12:37;101680.16;;;23.40;50.07
51986;BME280;38002;53.296;6.600;2023-07-20T13:17:39;101686.84;;;23.08;50.16
51986;BME280;38002;53.296;6.600;2023-07-20T13:22:40;101687.03;;;22.75;50.28
51986;BME280;38002;53.296;6.600;2023-07-20T13:27:40;101690.63;;;22.31;47.96
51986;BME280;38002;53.296;6.600;2023-07-20T13:32:41;101681.88;;;22.28;51.00
51986;BME280;38002;53.296;6.600;2023-07-20T13:37:42;101687.44;;;22.28;51.44
51986;BME280;38002;53.296;6.600;2023-07-20T13:42:42;101687.28;;;22.16;51.58
51986;BME280;38002;53.296;6.600;2023-07-20T13:47:45;101687.72;;;22.06;51.81
51986;BME280;38002;53.296;6.600;2023-07-20T13:52:45;101683.88;;;22.07;51.55
51986;BME280;38002;53.296;6.600;2023-07-20T13:57:47;101683.69;;;22.09;52.02
51986;BME280;38002;53.296;6.600;2023-07-20T14:02:47;101683.25;;;22.12;52.11
51986;BME280;38002;53.296;6.600;2023-07-20T14:07:48;101677.31;;;21.95;52.14
51986;BME280;38002;53.296;6.600;2023-07-20T14:12:50;101671.78;;;21.82;51.98
51986;BME280;38002;53.296;6.600;2023-07-20T14:17:51;101667.13;;;21.69;52.29
51986;BME280;38002;53.296;6.600;2023-07-20T14:22:51;101663.09;;;21.65;52.91
51986;BME280;38002;53.296;6.600;2023-07-20T14:27:52;101659.47;;;21.52;52.77
51986;BME280;38002;53.296;6.600;2023-07-20T14:32:52;101661.19;;;21.46;53.25
51986;BME280;38002;53.296;6.600;2023-07-20T14:37:53;101650.75;;;21.48;53.05
51986;BME280;38002;53.296;6.600;2023-07-20T14:42:55;101653.31;;;21.56;53.26
51986;BME280;38002;53.296;6.600;2023-07-20T14:47:55;101641.09;;;21.97;52.88
51986;BME280;38002;53.296;6.600;2023-07-20T14:52:56;101655.84;;;22.35;52.47
51986;BME280;38002;53.296;6.600;2023-07-20T14:57:57;101651.41;;;22.66;52.06
51986;BME280;38002;53.296;6.600;2023-07-20T15:02:57;101648.31;;;22.55;51.79
51986;BME280;38002;53.296;6.600;2023-07-20T15:08:04;101651.66;;;22.26;51.90
51986;BME280;38002;53.296;6.600;2023-07-20T15:13:06;101646.00;;;21.95;50.78
51986;BME280;38002;53.296;6.600;2023-07-20T15:18:06;101641.09;;;21.90;52.24
51986;BME280;38002;53.296;6.600;2023-07-20T15:23:07;101629.09;;;22.09;52.66
51986;BME280;38002;53.296;6.600;2023-07-20T15:28:07;101615.31;;;22.41;52.89
51986;BME280;38002;53.296;6.600;2023-07-20T15:33:09;101613.28;;;22.61;52.11
51986;BME280;38002;53.296;6.600;2023-07-20T15:38:10;101620.88;;;22.79;51.65
51986;BME280;38002;53.296;6.600;2023-07-20T15:43:11;101618.66;;;22.87;51.49
51986;BME280;38002;53.296;6.600;2023-07-20T15:48:18;101615.50;;;22.84;51.16
51986;BME280;38002;53.296;6.600;2023-07-20T15:53:24;101616.50;;;22.58;51.53
51986;BME280;38002;53.296;6.600;2023-07-20T15:58:26;101614.00;;;22.50;51.68
51986;BME280;38002;53.296;6.600;2023-07-20T16:03:29;101602.03;;;22.56;51.09
51986;BME280;38002;53.296;6.600;2023-07-20T16:08:30;101613.06;;;22.62;51.19
51986;BME280;38002;53.296;6.600;2023-07-20T16:13:31;101605.81;;;22.61;51.10
51986;BME280;38002;53.296;6.600;2023-07-20T16:18:31;101604.56;;;22.57;51.26
51986;BME280;38002;53.296;6.600;2023-07-20T16:23:32;101601.16;;;22.55;50.61
51986;BME280;38002;53.296;6.600;2023-07-20T16:28:32;101587.41;;;22.42;50.65
51986;BME280;38002;53.296;6.600;2023-07-20T16:33:33;101587.22;;;22.31;51.19
51986;BME280;38002;53.296;6.600;2023-07-20T16:38:33;101589.84;;;22.26;51.13
51986;BME280;38002;53.296;6.600;2023-07-20T16:43:38;101580.06;;;22.16;50.76
51986;BME280;38002;53.296;6.600;2023-07-20T16:48:39;101578.22;;;21.97;51.22
51986;BME280;38002;53.296;6.600;2023-07-20T16:53:39;101578.06;;;21.79;51.40
51986;BME280;38002;53.296;6.600;2023-07-20T16:58:40;101575.97;;;21.68;51.64
51986;BME280;38002;53.296;6.600;2023-07-20T17:03:40;101567.47;;;21.63;51.81
51986;BME280;38002;53.296;6.600;2023-07-20T17:08:41;101574.72;;;21.57;51.78
51986;BME280;38002;53.296;6.600;2023-07-20T17:13:41;101554.97;;;21.41;51.80
51986;BME280;38002;53.296;6.600;2023-07-20T17:18:42;101557.75;;;21.27;51.78
51986;BME280;38002;53.296;6.600;2023-07-20T17:23:43;101559.72;;;21.14;52.14
51986;BME280;38002;53.296;6.600;2023-07-20T17:28:44;101561.78;;;20.99;52.58
51986;BME280;38002;53.296;6.600;2023-07-20T17:33:45;101564.75;;;20.84;52.31
51986;BME280;38002;53.296;6.600;2023-07-20T17:38:45;101557.31;;;20.71;52.64
51986;BME280;38002;53.296;6.600;2023-07-20T17:43:47;101552.22;;;20.62;52.99
51986;BME280;38002;53.296;6.600;2023-07-20T17:48:47;101555.16;;;20.47;53.22
51986;BME280;38002;53.296;6.600;2023-07-20T17:53:48;101561.31;;;20.36;53.58
51986;BME280;38002;53.296;6.600;2023-07-20T17:58:48;101552.13;;;20.22;53.84
51986;BME280;38002;53.296;6.600;2023-07-20T18:03:49;101553.56;;;20.12;54.03
51986;BME280;38002;53.296;6.600;2023-07-20T18:08:49;101556.94;;;20.01;54.18
51986;BME280;38002;53.296;6.600;2023-07-20T18:13:50;101555.00;;;19.94;54.58
51986;BME280;38002;53.296;6.600;2023-07-20T18:18:50;101546.66;;;19.81;54.75
51986;BME280;38002;53.296;6.600;2023-07-20T18:23:51;101551.06;;;19.69;55.16
51986;BME280;38002;53.296;6.600;2023-07-20T18:28:51;101551.00;;;19.56;55.47
51986;BME280;38002;53.296;6.600;2023-07-20T18:33:53;101549.47;;;19.47;55.56
51986;BME280;38002;53.296;6.600;2023-07-20T18:38:54;101547.25;;;19.36;56.03
51986;BME280;38002;53.296;6.600;2023-07-20T18:43:55;101550.16;;;19.28;56.20
51986;BME280;38002;53.296;6.600;2023-07-20T18:48:56;101539.69;;;19.17;56.40
51986;BME280;38002;53.296;6.600;2023-07-20T18:53:56;101543.88;;;19.06;56.68
51986;BME280;38002;53.296;6.600;2023-07-20T18:58:56;101545.47;;;18.94;57.07
51986;BME280;38002;53.296;6.600;2023-07-20T19:03:57;101547.91;;;18.82;57.33
51986;BME280;38002;53.296;6.600;2023-07-20T19:08:58;101551.00;;;18.73;57.74
51986;BME280;38002;53.296;6.600;2023-07-20T19:13:58;101548.13;;;18.59;57.80
51986;BME280;38002;53.296;6.600;2023-07-20T19:18:59;101550.75;;;18.46;58.05
51986;BME280;38002;53.296;6.600;2023-07-20T19:23:59;101549.34;;;18.36;58.29
51986;BME280;38002;53.296;6.600;2023-07-20T19:29:00;101562.78;;;18.24;58.92
51986;BME280;38002;53.296;6.600;2023-07-20T19:34:01;101565.97;;;18.06;61.12
51986;BME280;38002;53.296;6.600;2023-07-20T19:39:02;101562.94;;;18.01;59.19
51986;BME280;38002;53.296;6.600;2023-07-20T19:44:03;101575.97;;;17.93;59.65
51986;BME280;38002;53.296;6.600;2023-07-20T19:49:03;101573.13;;;17.86;60.07
51986;BME280;38002;53.296;6.600;2023-07-20T19:54:04;101574.00;;;17.72;60.46
51986;BME280;38002;53.296;6.600;2023-07-20T19:59:05;101577.03;;;17.62;60.72
51986;BME280;38002;53.296;6.600;2023-07-20T20:04:05;101570.09;;;17.52;60.97
51986;BME280;38002;53.296;6.600;2023-07-20T20:09:06;101567.06;;;17.32;61.25
51986;BME280;38002;53.296;6.600;2023-07-20T20:14:06;101583.06;;;17.14;61.34
51986;BME280;38002;53.296;6.600;2023-07-20T20:19:16;101583.41;;;16.96;61.86
51986;BME280;38002;53.296;6.600;2023-07-20T20:24:16;101580.50;;;16.75;62.37
51986;BME280;38002;53.296;6.600;2023-07-20T20:29:17;101574.13;;;16.60;62.95
51986;BME280;38002;53.296;6.600;2023-07-20T20:34:18;101578.47;;;16.46;63.15
51986;BME280;38002;53.296;6.600;2023-07-20T20:39:18;101583.59;;;16.26;63.30
51986;BME280;38002;53.296;6.600;2023-07-20T20:44:19;101574.91;;;16.15;63.88
51986;BME280;38002;53.296;6.600;2023-07-20T20:49:31;101580.63;;;16.05;64.52
51986;BME280;38002;53.296;6.600;2023-07-20T20:54:32;101574.31;;;15.97;64.64
51986;BME280;38002;53.296;6.600;2023-07-20T20:59:33;101562.53;;;15.88;65.09
51986;BME280;38002;53.296;6.600;2023-07-20T21:04:39;101557.78;;;15.82;65.58
51986;BME280;38002;53.296;6.600;2023-07-20T21:09:40;101562.25;;;15.75;65.56
51986;BME280;38002;53.296;6.600;2023-07-20T21:14:41;101555.13;;;15.66;66.02
51986;BME280;38002;53.296;6.600;2023-07-20T21:19:42;101549.50;;;15.59;66.17
51986;BME280;38002;53.296;6.600;2023-07-20T21:24:50;101567.34;;;15.55;66.65
51986;BME280;38002;53.296;6.600;2023-07-20T21:29:51;101554.16;;;15.51;66.80
51986;BME280;38002;53.296;6.600;2023-07-20T21:34:52;101548.50;;;15.44;66.90
51986;BME280;38002;53.296;6.600;2023-07-20T21:39:52;101561.69;;;15.40;67.38
51986;BME280;38002;53.296;6.600;2023-07-20T21:44:53;101555.91;;;15.35;67.58
51986;BME280;38002;53.296;6.600;2023-07-20T21:49:53;101551.81;;;15.31;67.75
51986;BME280;38002;53.296;6.600;2023-07-20T21:54:54;101547.19;;;15.24;67.93
51986;BME280;38002;53.296;6.600;2023-07-20T21:59:54;101545.50;;;15.15;68.39
51986;BME280;38002;53.296;6.600;2023-07-20T22:04:55;101552.72;;;15.08;68.32
51986;BME280;38002;53.296;6.600;2023-07-20T22:09:56;101546.56;;;14.97;68.55
51986;BME280;38002;53.296;6.600;2023-07-20T22:14:57;101548.47;;;14.89;68.80
51986;BME280;38002;53.296;6.600;2023-07-20T22:19:57;101546.59;;;14.81;69.17
51986;BME280;38002;53.296;6.600;2023-07-20T22:24:57;101556.53;;;14.74;69.45
51986;BME280;38002;53.296;6.600;2023-07-20T22:29:58;101543.00;;;14.65;69.25
51986;BME280;38002;53.296;6.600;2023-07-20T22:34:59;101541.31;;;14.56;69.95
51986;BME280;38002;53.296;6.600;2023-07-20T22:39:59;101525.91;;;14.46;70.26
51986;BME280;38002;53.296;6.600;2023-07-20T22:45:02;101527.63;;;14.39;70.13
51986;BME280;38002;53.296;6.600;2023-07-20T22:50:03;101522.97;;;14.32;70.31
51986;BME280;38002;53.296;6.600;2023-07-20T22:55:03;101527.41;;;14.25;70.53
51986;BME280;38002;53.296;6.600;2023-07-20T23:00:05;101521.06;;;14.16;70.66
51986;BME280;38002;53.296;6.600;2023-07-20T23:05:10;101515.59;;;14.08;70.88
51986;BME280;38002;53.296;6.600;2023-07-20T23:10:12;101519.69;;;14.04;71.37
51986;BME280;38002;53.296;6.600;2023-07-20T23:15:14;101512.34;;;13.96;71.14
51986;BME280;38002;53.296;6.600;2023-07-20T23:20:15;101514.53;;;13.85;75.88
51986;BME280;38002;53.296;6.600;2023-07-20T23:25:20;101497.44;;;13.83;71.90
51986;BME280;38002;53.296;6.600;2023-07-20T23:30:22;101494.53;;;13.76;71.96
51986;BME280;38002;53.296;6.600;2023-07-20T23:35:23;101494.81;;;13.65;76.09
51986;BME280;38002;53.296;6.600;2023-07-20T23:40:25;101479.63;;;13.62;72.48
51986;BME280;38002;53.296;6.600;2023-07-20T23:45:26;101487.31;;;13.59;72.49
51986;BME280;38002;53.296;6.600;2023-07-20T23:50:26;101477.03;;;13.53;72.88
51986;BME280;38002;53.296;6.600;2023-07-20T23:55:27;101481.28;;;13.47;72.66
